createdAt,value
2022-10-04T00:00:44.754Z,95.49
2022-10-04T00:01:38.789Z,95.39
2022-10-04T00:02:38.953Z,95.39
2022-10-04T00:03:38.832Z,95.39
2022-10-04T00:04:39.523Z,95.49
2022-10-04T00:05:39.217Z,95.59
2022-10-04T00:06:39.395Z,95.69
2022-10-04T00:07:38.550Z,95.69
2022-10-04T00:08:38.750Z,95.59
2022-10-04T00:09:38.931Z,95.59
2022-10-04T00:10:38.113Z,95.59
2022-10-04T00:11:40.624Z,95.49
2022-10-04T00:12:40.562Z,95.39
2022-10-04T00:13:38.736Z,95.28
2022-10-04T00:14:38.899Z,95.28
2022-10-04T00:15:38.798Z,95.28
2022-10-04T00:16:37.922Z,95.28
2022-10-04T00:17:38.770Z,95.28
2022-10-04T00:18:38.974Z,95.39
2022-10-04T00:19:39.141Z,95.39
2022-10-04T00:20:45.678Z,95.53
2022-10-04T00:21:38.549Z,95.49
2022-10-04T00:23:03.702Z,95.64
2022-10-04T00:23:37.953Z,95.59
2022-10-04T00:24:38.153Z,95.59
2022-10-04T00:25:38.401Z,95.59
2022-10-04T00:26:37.638Z,95.90
2022-10-04T00:27:37.805Z,96.00
2022-10-04T00:28:39.041Z,96.20
2022-10-04T00:29:44.496Z,96.31
2022-10-04T00:30:37.589Z,96.31
2022-10-04T00:31:38.990Z,96.31
2022-10-04T00:32:40.079Z,96.31
2022-10-04T00:33:38.229Z,96.10
2022-10-04T00:34:38.460Z,95.94
2022-10-04T00:35:37.585Z,95.84
2022-10-04T00:36:37.885Z,95.64
2022-10-04T00:37:38.083Z,95.74
2022-10-04T00:38:39.203Z,95.84
2022-10-04T00:39:39.400Z,95.84
2022-10-04T00:40:37.542Z,95.84
2022-10-04T00:41:37.732Z,95.94
2022-10-04T00:42:39.118Z,95.94
2022-10-04T00:43:39.207Z,95.84
2022-10-04T00:44:43.630Z,95.84
2022-10-04T00:45:37.571Z,95.74
2022-10-04T00:46:38.912Z,95.84
2022-10-04T00:47:39.042Z,95.64
2022-10-04T00:48:38.300Z,95.64
2022-10-04T00:49:38.471Z,95.53
2022-10-04T00:50:37.673Z,95.53
2022-10-04T00:51:37.887Z,95.68
2022-10-04T00:52:38.101Z,95.68
2022-10-04T00:53:38.581Z,95.78
2022-10-04T00:54:38.558Z,95.89
2022-10-04T00:55:37.730Z,95.89
2022-10-04T00:56:38.011Z,95.89
2022-10-04T00:57:38.221Z,96.09
2022-10-04T00:58:39.680Z,96.19
2022-10-04T00:59:38.670Z,96.19
2022-10-04T01:00:37.856Z,96.30
2022-10-04T01:01:39.301Z,96.19
2022-10-04T01:02:39.435Z,95.98
2022-10-04T01:03:37.467Z,95.98
2022-10-04T01:04:37.755Z,95.89
2022-10-04T01:05:38.991Z,96.03
2022-10-04T01:06:37.186Z,96.03
2022-10-04T01:07:38.377Z,96.14
2022-10-04T01:08:38.614Z,96.34
2022-10-04T01:09:39.027Z,96.34
2022-10-04T01:10:36.972Z,96.44
2022-10-04T01:11:39.431Z,96.34
2022-10-04T01:12:38.467Z,96.44
2022-10-04T01:13:38.691Z,96.55
2022-10-04T01:14:37.881Z,96.65
2022-10-04T01:15:38.191Z,96.75
2022-10-04T01:16:37.315Z,96.90
2022-10-04T01:17:38.564Z,97.00
2022-10-04T01:18:37.738Z,97.10
2022-10-04T01:19:39.018Z,97.31
2022-10-04T01:20:37.173Z,97.41
2022-10-04T01:21:37.432Z,97.62
2022-10-04T01:23:05.682Z,97.82
2022-10-04T01:23:38.917Z,97.92
2022-10-04T01:24:37.017Z,98.13
2022-10-04T01:25:37.224Z,98.24
2022-10-04T01:26:37.539Z,98.33
2022-10-04T01:27:40.178Z,98.44
2022-10-04T01:28:38.922Z,98.54
2022-10-04T01:29:39.145Z,98.54
2022-10-04T01:30:37.332Z,98.54
2022-10-04T01:31:37.613Z,98.65
2022-10-04T01:32:37.791Z,98.75
2022-10-04T01:33:36.948Z,98.75
2022-10-04T01:34:38.237Z,98.85
2022-10-04T01:35:37.466Z,98.96
2022-10-04T01:36:36.700Z,98.96
2022-10-04T01:37:37.964Z,98.85
2022-10-04T01:38:37.140Z,98.70
2022-10-04T01:39:38.408Z,98.60
2022-10-04T01:40:37.617Z,98.39
2022-10-04T01:41:38.895Z,98.08
2022-10-04T01:42:38.072Z,97.99
2022-10-04T01:43:38.360Z,97.92
2022-10-04T01:44:37.488Z,97.88
2022-10-04T01:45:37.730Z,97.92
2022-10-04T01:46:38.019Z,97.92
2022-10-04T01:47:39.146Z,98.03
2022-10-04T01:48:38.399Z,98.13
2022-10-04T01:49:36.455Z,98.33
2022-10-04T01:50:38.752Z,98.54
2022-10-04T01:51:39.152Z,98.75
2022-10-04T01:52:37.075Z,98.96
2022-10-04T01:54:06.210Z,99.05
2022-10-04T01:54:37.367Z,99.05
2022-10-04T01:55:36.522Z,99.21
2022-10-04T01:56:37.887Z,99.31
2022-10-04T01:57:38.038Z,99.41
2022-10-04T01:58:37.166Z,99.72
2022-10-04T01:59:38.613Z,99.93
2022-10-04T02:00:38.602Z,99.99
2022-10-04T02:01:38.285Z,99.99
2022-10-04T02:02:37.421Z,99.99
2022-10-04T02:03:36.629Z,99.99
2022-10-04T02:04:36.823Z,99.99
2022-10-04T02:05:37.023Z,99.99
2022-10-04T02:06:38.261Z,99.99
2022-10-04T02:07:36.340Z,99.99
2022-10-04T02:08:38.625Z,99.99
2022-10-04T02:09:38.866Z,99.99
2022-10-04T02:10:39.775Z,99.99
2022-10-04T02:11:38.299Z,99.99
2022-10-04T02:12:38.472Z,99.99
2022-10-04T02:13:36.586Z,99.99
2022-10-04T02:14:36.841Z,99.99
2022-10-04T02:15:37.106Z,99.99
2022-10-04T02:16:36.250Z,99.99
2022-10-04T02:17:36.473Z,99.99
2022-10-04T02:18:36.679Z,99.99
2022-10-04T02:19:36.905Z,99.99
2022-10-04T02:20:44.418Z,99.99
2022-10-04T02:21:37.372Z,99.99
2022-10-04T02:22:36.583Z,99.99
2022-10-04T02:24:01.732Z,99.99
2022-10-04T02:24:37.065Z,99.99
2022-10-04T02:25:36.231Z,99.99
2022-10-04T02:26:36.461Z,99.99
2022-10-04T02:27:36.720Z,99.99
2022-10-04T02:28:37.021Z,99.99
2022-10-04T02:29:36.155Z,99.99
2022-10-04T02:30:36.387Z,99.99
2022-10-04T02:31:37.734Z,99.99
2022-10-04T02:32:37.214Z,99.99
2022-10-04T02:33:37.464Z,99.99
2022-10-04T02:34:36.606Z,99.99
2022-10-04T02:35:37.865Z,99.93
2022-10-04T02:36:38.127Z,99.93
2022-10-04T02:37:36.239Z,99.82
2022-10-04T02:38:36.493Z,99.77
2022-10-04T02:39:36.763Z,99.87
2022-10-04T02:40:37.948Z,99.97
2022-10-04T02:41:36.092Z,99.97
2022-10-04T02:42:36.338Z,99.87
2022-10-04T02:43:37.609Z,99.97
2022-10-04T02:44:35.766Z,99.97
2022-10-04T02:45:37.064Z,99.87
2022-10-04T02:46:36.374Z,99.87
2022-10-04T02:47:38.502Z,99.87
2022-10-04T02:48:37.742Z,99.97
2022-10-04T02:49:35.890Z,99.99
2022-10-04T02:50:36.126Z,99.99
2022-10-04T02:51:36.390Z,99.99
2022-10-04T02:52:42.925Z,99.99
2022-10-04T02:53:35.809Z,99.99
2022-10-04T02:54:37.087Z,99.99
2022-10-04T02:55:37.343Z,99.99
2022-10-04T02:56:36.547Z,99.99
2022-10-04T02:57:37.791Z,99.99
2022-10-04T02:58:38.019Z,99.99
2022-10-04T02:59:36.132Z,99.99
2022-10-04T03:00:36.374Z,99.99
2022-10-04T03:01:37.843Z,99.99
2022-10-04T03:02:35.790Z,99.99
2022-10-04T03:03:36.195Z,99.99
2022-10-04T03:04:37.506Z,99.99
2022-10-04T03:05:37.746Z,99.99
2022-10-04T03:06:35.936Z,99.97
2022-10-04T03:07:36.284Z,99.97
2022-10-04T03:08:35.495Z,99.87
2022-10-04T03:09:35.687Z,99.77
2022-10-04T03:10:35.952Z,99.87
2022-10-04T03:11:36.188Z,99.77
2022-10-04T03:12:35.416Z,99.97
2022-10-04T03:13:37.784Z,99.87
2022-10-04T03:14:36.965Z,99.77
2022-10-04T03:15:36.208Z,99.77
2022-10-04T03:16:36.534Z,99.66
2022-10-04T03:17:36.719Z,99.77
2022-10-04T03:18:35.936Z,99.66
2022-10-04T03:19:37.254Z,99.66
2022-10-04T03:20:37.494Z,99.66
2022-10-04T03:21:35.708Z,99.66
2022-10-04T03:22:36.962Z,99.66
2022-10-04T03:23:36.136Z,99.66
2022-10-04T03:24:36.409Z,99.46
2022-10-04T03:25:36.608Z,99.35
2022-10-04T03:26:37.705Z,99.25
2022-10-04T03:27:37.100Z,99.25
2022-10-04T03:28:37.355Z,98.94
2022-10-04T03:29:37.547Z,98.84
2022-10-04T03:30:36.727Z,98.63
2022-10-04T03:31:35.970Z,98.53
2022-10-04T03:32:35.112Z,98.53
2022-10-04T03:33:36.415Z,98.33
2022-10-04T03:34:36.606Z,98.22
2022-10-04T03:35:37.929Z,98.27
2022-10-04T03:36:36.017Z,98.27
2022-10-04T03:37:37.335Z,98.22
2022-10-04T03:38:35.452Z,98.12
2022-10-04T03:39:37.794Z,98.06
2022-10-04T03:40:36.950Z,98.06
2022-10-04T03:41:35.139Z,97.96
2022-10-04T03:42:37.419Z,97.96
2022-10-04T03:43:35.574Z,98.16
2022-10-04T03:44:36.879Z,98.27
2022-10-04T03:45:35.104Z,98.37
2022-10-04T03:46:42.576Z,98.58
2022-10-04T03:47:35.495Z,98.58
2022-10-04T03:48:35.837Z,98.79
2022-10-04T03:49:37.043Z,98.88
2022-10-04T03:50:37.294Z,98.99
2022-10-04T03:51:35.461Z,99.09
2022-10-04T03:52:50.366Z,98.99
2022-10-04T03:53:36.977Z,99.09
2022-10-04T03:54:35.135Z,98.99
2022-10-04T03:55:37.448Z,98.99
2022-10-04T03:56:35.608Z,98.88
2022-10-04T03:57:35.852Z,98.88
2022-10-04T03:58:35.533Z,98.88
2022-10-04T03:59:35.291Z,98.88
2022-10-04T04:00:36.595Z,98.79
2022-10-04T04:01:36.881Z,98.79
2022-10-04T04:02:36.118Z,98.88
2022-10-04T04:03:36.349Z,98.88
2022-10-04T04:04:35.487Z,98.88
2022-10-04T04:05:36.771Z,98.99
2022-10-04T04:06:35.931Z,99.09
2022-10-04T04:07:35.190Z,99.19
2022-10-04T04:08:38.771Z,99.30
2022-10-04T04:09:34.553Z,99.30
2022-10-04T04:10:35.847Z,99.40
2022-10-04T04:11:35.018Z,99.40
2022-10-04T04:12:36.320Z,99.40
2022-10-04T04:13:35.507Z,99.44
2022-10-04T04:14:34.772Z,99.30
2022-10-04T04:15:35.997Z,99.19
2022-10-04T04:16:36.232Z,99.24
2022-10-04T04:17:36.495Z,99.14
2022-10-04T04:18:34.620Z,99.04
2022-10-04T04:19:34.851Z,98.93
2022-10-04T04:20:36.109Z,98.93
2022-10-04T04:21:36.338Z,98.83
2022-10-04T04:22:37.528Z,98.62
2022-10-04T04:23:34.745Z,98.52
2022-10-04T04:24:42.323Z,98.42
2022-10-04T04:25:36.251Z,98.42
2022-10-04T04:26:35.488Z,98.52
2022-10-04T04:27:35.677Z,98.52
2022-10-04T04:28:34.912Z,98.52
2022-10-04T04:29:35.123Z,98.52
2022-10-04T04:30:35.405Z,98.52
2022-10-04T04:31:36.635Z,98.57
2022-10-04T04:32:34.745Z,98.67
2022-10-04T04:33:35.016Z,98.67
2022-10-04T04:34:36.277Z,98.67
2022-10-04T04:35:36.570Z,98.57
2022-10-04T04:36:34.717Z,98.61
2022-10-04T04:37:34.911Z,98.61
2022-10-04T04:38:35.183Z,98.50
2022-10-04T04:39:34.369Z,98.61
2022-10-04T04:40:35.625Z,98.71
2022-10-04T04:41:35.891Z,98.71
2022-10-04T04:42:35.049Z,98.71
2022-10-04T04:43:36.314Z,98.86
2022-10-04T04:44:36.555Z,98.86
2022-10-04T04:45:35.838Z,98.86
2022-10-04T04:46:34.986Z,98.97
2022-10-04T04:47:35.218Z,99.07
2022-10-04T04:48:34.382Z,99.17
2022-10-04T04:49:34.639Z,99.17
2022-10-04T04:50:35.906Z,99.38
2022-10-04T04:51:36.157Z,99.52
2022-10-04T04:52:37.217Z,99.58
2022-10-04T04:53:34.515Z,99.58
2022-10-04T04:54:34.759Z,99.69
2022-10-04T04:55:50.313Z,99.79
2022-10-04T04:56:36.227Z,99.69
2022-10-04T04:57:34.422Z,99.79
2022-10-04T04:58:34.694Z,99.79
2022-10-04T04:59:34.957Z,99.90
2022-10-04T05:00:35.150Z,99.90
2022-10-04T05:01:34.377Z,99.90
2022-10-04T05:02:35.723Z,99.90
2022-10-04T05:03:34.846Z,99.69
2022-10-04T05:04:35.120Z,99.69
2022-10-04T05:05:34.299Z,99.58
2022-10-04T05:06:35.575Z,99.48
2022-10-04T05:07:34.784Z,99.63
2022-10-04T05:08:37.324Z,99.58
2022-10-04T05:09:35.272Z,99.52
2022-10-04T05:10:36.557Z,99.63
2022-10-04T05:11:35.743Z,99.63
2022-10-04T05:12:33.903Z,99.63
2022-10-04T05:13:34.080Z,99.73
2022-10-04T05:14:36.569Z,99.73
2022-10-04T05:15:35.588Z,99.73
2022-10-04T05:16:33.795Z,99.73
2022-10-04T05:17:35.049Z,99.73
2022-10-04T05:18:34.180Z,99.84
2022-10-04T05:19:34.379Z,99.84
2022-10-04T05:20:34.644Z,99.99
2022-10-04T05:21:34.830Z,99.99
2022-10-04T05:22:35.055Z,99.99
2022-10-04T05:23:34.225Z,99.99
2022-10-04T05:24:34.456Z,99.99
2022-10-04T05:25:34.693Z,99.99
2022-10-04T05:26:34.918Z,99.99
2022-10-04T05:27:35.163Z,99.99
2022-10-04T05:28:34.416Z,99.99
2022-10-04T05:29:33.567Z,99.99
2022-10-04T05:30:33.793Z,99.99
2022-10-04T05:31:35.178Z,99.99
2022-10-04T05:32:35.325Z,99.99
2022-10-04T05:33:34.517Z,99.99
2022-10-04T05:34:33.753Z,99.99
2022-10-04T05:35:35.005Z,99.99
2022-10-04T05:36:35.255Z,99.99
2022-10-04T05:37:35.503Z,99.99
2022-10-04T05:38:33.662Z,99.99
2022-10-04T05:39:34.972Z,99.99
2022-10-04T05:40:34.162Z,99.99
2022-10-04T05:41:34.467Z,99.99
2022-10-04T05:42:33.647Z,99.99
2022-10-04T05:43:33.845Z,99.99
2022-10-04T05:44:35.163Z,99.99
2022-10-04T05:45:33.411Z,99.99
2022-10-04T05:46:34.624Z,99.99
2022-10-04T05:47:34.858Z,99.99
2022-10-04T05:48:34.065Z,99.99
2022-10-04T05:49:34.321Z,99.99
2022-10-04T05:50:33.531Z,99.99
2022-10-04T05:51:33.790Z,99.99
2022-10-04T05:52:34.085Z,99.99
2022-10-04T05:53:34.465Z,99.99
2022-10-04T05:54:33.523Z,99.99
2022-10-04T05:55:34.807Z,99.99
2022-10-04T05:56:35.007Z,99.99
2022-10-04T05:57:34.256Z,99.99
2022-10-04T05:58:33.415Z,99.99
2022-10-04T05:59:33.718Z,99.99
2022-10-04T06:00:34.934Z,99.99
2022-10-04T06:01:34.279Z,99.99
2022-10-04T06:02:33.447Z,99.99
2022-10-04T06:03:33.659Z,99.99
2022-10-04T06:04:33.910Z,99.99
2022-10-04T06:05:35.175Z,99.99
2022-10-04T06:06:34.430Z,99.99
2022-10-04T06:07:33.634Z,99.99
2022-10-04T06:08:33.845Z,99.99
2022-10-04T06:09:33.099Z,99.99
2022-10-04T06:10:34.411Z,99.99
2022-10-04T06:11:34.645Z,99.99
2022-10-04T06:12:34.887Z,99.99
2022-10-04T06:13:34.108Z,99.99
2022-10-04T06:14:34.323Z,99.99
2022-10-04T06:15:34.631Z,99.99
2022-10-04T06:16:33.876Z,99.99
2022-10-04T06:17:32.983Z,99.99
2022-10-04T06:18:33.241Z,99.99
2022-10-04T06:19:33.480Z,99.99
2022-10-04T06:20:33.847Z,99.99
2022-10-04T06:21:34.125Z,99.99
2022-10-04T06:22:34.187Z,99.99
2022-10-04T06:23:33.378Z,99.99
2022-10-04T06:24:34.623Z,99.99
2022-10-04T06:25:33.847Z,99.99
2022-10-04T06:26:35.198Z,99.99
2022-10-04T06:27:33.259Z,99.99
2022-10-04T06:28:33.560Z,99.99
2022-10-04T06:29:33.691Z,99.99
2022-10-04T06:30:33.011Z,99.99
2022-10-04T06:31:35.221Z,99.99
2022-10-04T06:32:34.426Z,99.99
2022-10-04T06:33:33.623Z,99.99
2022-10-04T06:34:34.888Z,99.99
2022-10-04T06:35:35.120Z,99.99
2022-10-04T06:36:34.349Z,99.99
2022-10-04T06:37:34.622Z,99.99
2022-10-04T06:38:33.809Z,99.99
2022-10-04T06:39:32.942Z,99.99
2022-10-04T06:40:34.228Z,99.99
2022-10-04T06:41:33.390Z,99.97
2022-10-04T06:42:33.616Z,99.87
2022-10-04T06:43:32.896Z,99.87
2022-10-04T06:44:34.061Z,99.77
2022-10-04T06:45:33.309Z,99.66
2022-10-04T06:46:33.515Z,99.66
2022-10-04T06:47:33.739Z,99.77
2022-10-04T06:48:34.032Z,99.72
2022-10-04T06:49:33.126Z,99.62
2022-10-04T06:50:33.357Z,99.62
2022-10-04T06:51:34.660Z,99.51
2022-10-04T06:52:34.922Z,99.51
2022-10-04T06:53:35.169Z,99.41
2022-10-04T06:54:34.310Z,99.16
2022-10-04T06:55:33.512Z,99.05
2022-10-04T06:56:32.648Z,98.96
2022-10-04T06:57:39.598Z,98.75
2022-10-04T06:58:33.134Z,98.65
2022-10-04T06:59:33.425Z,98.44
2022-10-04T07:00:33.539Z,98.33
2022-10-04T07:01:34.884Z,98.33
2022-10-04T07:02:33.072Z,98.19
2022-10-04T07:03:34.228Z,98.19
2022-10-04T07:04:49.998Z,98.19
2022-10-04T07:05:35.937Z,98.08
2022-10-04T07:06:33.843Z,97.99
2022-10-04T07:07:39.383Z,97.99
2022-10-04T07:08:33.331Z,97.99
2022-10-04T07:09:33.829Z,97.88
2022-10-04T07:10:32.672Z,97.88
2022-10-04T07:11:34.056Z,97.67
2022-10-04T07:12:33.178Z,97.67
2022-10-04T07:13:33.270Z,97.57
2022-10-04T07:14:32.402Z,97.57
2022-10-04T07:15:32.683Z,97.47
2022-10-04T07:16:32.894Z,97.47
2022-10-04T07:17:33.307Z,97.47
2022-10-04T07:18:33.319Z,97.47
2022-10-04T07:19:32.497Z,97.37
2022-10-04T07:20:32.724Z,97.42
2022-10-04T07:21:39.163Z,97.32
2022-10-04T07:22:32.085Z,97.32
2022-10-04T07:23:32.415Z,97.32
2022-10-04T07:24:33.561Z,97.32
2022-10-04T07:25:33.783Z,97.12
2022-10-04T07:26:33.978Z,97.12
2022-10-04T07:27:32.127Z,97.22
2022-10-04T07:28:33.498Z,97.28
2022-10-04T07:29:33.599Z,97.28
2022-10-04T07:30:33.931Z,97.28
2022-10-04T07:31:31.972Z,97.28
2022-10-04T07:32:33.278Z,97.17
2022-10-04T07:33:32.450Z,97.13
2022-10-04T07:34:32.815Z,96.82
2022-10-04T07:35:33.984Z,96.82
2022-10-04T07:36:33.183Z,96.62
2022-10-04T07:37:32.389Z,96.31
2022-10-04T07:38:33.656Z,96.31
2022-10-04T07:39:32.846Z,96.20
2022-10-04T07:40:33.111Z,96.06
2022-10-04T07:41:33.280Z,96.06
2022-10-04T07:42:32.473Z,95.95
2022-10-04T07:43:38.962Z,95.95
2022-10-04T07:44:31.929Z,95.95
2022-10-04T07:45:32.235Z,95.86
2022-10-04T07:46:32.483Z,95.75
2022-10-04T07:47:32.646Z,95.61
2022-10-04T07:48:32.894Z,95.61
2022-10-04T07:49:32.124Z,95.61
2022-10-04T07:50:32.342Z,95.61
2022-10-04T07:51:32.717Z,95.61
2022-10-04T07:52:32.790Z,95.40
2022-10-04T07:54:00.026Z,95.36
2022-10-04T07:54:32.183Z,95.15
2022-10-04T07:55:32.470Z,94.95
2022-10-04T07:56:31.573Z,94.95
2022-10-04T07:57:33.836Z,94.64
2022-10-04T07:58:33.033Z,94.43
2022-10-04T07:59:32.152Z,94.39
2022-10-04T08:00:32.324Z,94.59
2022-10-04T08:01:32.578Z,94.59
2022-10-04T08:02:31.884Z,94.18
2022-10-04T08:03:31.938Z,93.77
2022-10-04T08:04:33.175Z,93.47
2022-10-04T08:05:32.284Z,93.01
2022-10-04T08:06:33.772Z,92.30
2022-10-04T08:07:33.705Z,92.10
2022-10-04T08:08:31.860Z,92.19
2022-10-04T08:09:33.059Z,91.78
2022-10-04T08:10:33.277Z,91.44
2022-10-04T08:11:33.423Z,91.23
2022-10-04T08:12:33.657Z,91.44
2022-10-04T08:13:33.825Z,91.54
2022-10-04T08:14:32.966Z,91.74
2022-10-04T08:15:33.198Z,91.44
2022-10-04T08:16:38.567Z,90.78
2022-10-04T08:17:31.450Z,91.09
2022-10-04T08:18:38.161Z,90.78
2022-10-04T08:19:32.867Z,90.68
2022-10-04T08:20:32.011Z,90.99
2022-10-04T08:21:33.236Z,90.99
2022-10-04T08:22:33.458Z,90.94
2022-10-04T08:23:33.700Z,91.15
2022-10-04T08:24:31.728Z,91.46
2022-10-04T08:25:32.947Z,90.33
2022-10-04T08:26:32.090Z,90.02
2022-10-04T08:27:33.358Z,90.84
2022-10-04T08:28:31.509Z,90.84
2022-10-04T08:29:32.132Z,90.84
2022-10-04T08:30:32.874Z,90.12
2022-10-04T08:31:32.070Z,90.74
2022-10-04T08:32:32.229Z,90.74
2022-10-04T08:33:38.677Z,90.29
2022-10-04T08:34:31.549Z,90.59
2022-10-04T08:35:33.871Z,91.41
2022-10-04T08:36:32.961Z,91.20
2022-10-04T08:37:31.146Z,90.80
2022-10-04T08:38:33.383Z,90.55
2022-10-04T08:39:35.360Z,90.86
2022-10-04T08:40:32.708Z,90.35
2022-10-04T08:41:31.909Z,89.73
2022-10-04T08:42:30.994Z,89.02
2022-10-04T08:43:32.267Z,88.78
2022-10-04T08:44:32.419Z,89.59
2022-10-04T08:45:31.565Z,89.69
2022-10-04T08:46:31.782Z,89.79
2022-10-04T08:47:30.915Z,89.69
2022-10-04T08:48:31.059Z,89.39
2022-10-04T08:49:32.286Z,89.39
2022-10-04T08:50:33.523Z,89.18
2022-10-04T08:51:32.678Z,88.98
2022-10-04T08:52:31.851Z,89.49
2022-10-04T08:53:30.946Z,89.59
2022-10-04T08:55:03.321Z,89.18
2022-10-04T08:55:31.308Z,89.28
2022-10-04T08:56:33.609Z,88.67
2022-10-04T08:57:33.810Z,89.28
2022-10-04T08:58:32.934Z,88.88
2022-10-04T08:59:33.122Z,88.47
2022-10-04T09:00:31.269Z,88.88
2022-10-04T09:01:31.516Z,88.98
2022-10-04T09:02:31.632Z,88.98
2022-10-04T09:03:32.834Z,88.88
2022-10-04T09:04:32.984Z,89.28
2022-10-04T09:05:33.141Z,89.49
2022-10-04T09:06:33.319Z,89.79
2022-10-04T09:07:33.492Z,89.90
2022-10-04T09:08:33.701Z,89.49
2022-10-04T09:09:32.765Z,89.79
2022-10-04T09:10:30.842Z,90.10
2022-10-04T09:11:32.053Z,90.61
2022-10-04T09:12:32.219Z,90.10
2022-10-04T09:13:31.336Z,89.39
2022-10-04T09:14:32.640Z,88.88
2022-10-04T09:15:31.772Z,89.08
2022-10-04T09:16:30.855Z,89.65
2022-10-04T09:17:30.993Z,89.55
2022-10-04T09:18:31.191Z,89.45
2022-10-04T09:19:31.353Z,89.55
2022-10-04T09:20:39.887Z,90.16
2022-10-04T09:21:31.679Z,90.26
2022-10-04T09:22:30.843Z,89.71
2022-10-04T09:23:35.255Z,89.40
2022-10-04T09:24:31.187Z,89.30
2022-10-04T09:25:37.707Z,89.61
2022-10-04T09:26:30.475Z,89.40
2022-10-04T09:27:53.631Z,89.16
2022-10-04T09:28:31.849Z,88.85
2022-10-04T09:29:30.997Z,88.75
2022-10-04T09:30:31.311Z,89.16
2022-10-04T09:31:31.407Z,88.31
2022-10-04T09:32:31.555Z,88.20
2022-10-04T09:33:31.718Z,88.61
2022-10-04T09:34:36.408Z,87.38
2022-10-04T09:35:31.974Z,86.47
2022-10-04T09:36:32.176Z,86.16
2022-10-04T09:37:30.287Z,86.27
2022-10-04T09:38:30.406Z,87.49
2022-10-04T09:39:31.244Z,87.18
2022-10-04T09:40:30.734Z,86.06
2022-10-04T09:41:30.881Z,86.33
2022-10-04T09:42:31.182Z,86.22
2022-10-04T09:43:30.206Z,85.41
2022-10-04T09:44:31.363Z,85.31
2022-10-04T09:45:30.486Z,85.17
2022-10-04T09:46:30.712Z,84.66
2022-10-04T09:47:31.862Z,85.68
2022-10-04T09:48:31.973Z,84.92
2022-10-04T09:49:32.135Z,85.84
2022-10-04T09:50:30.206Z,85.43
2022-10-04T09:51:31.404Z,84.31
2022-10-04T09:52:31.588Z,83.40
2022-10-04T09:53:30.721Z,84.78
2022-10-04T09:55:10.280Z,84.07
2022-10-04T09:55:31.441Z,84.48
2022-10-04T09:56:30.154Z,83.56
2022-10-04T09:57:32.387Z,83.06
2022-10-04T09:58:30.460Z,84.17
2022-10-04T09:59:31.668Z,83.93
2022-10-04T10:00:31.807Z,82.61
2022-10-04T10:01:31.999Z,83.93
2022-10-04T10:02:32.153Z,84.44
2022-10-04T10:03:31.262Z,83.89
2022-10-04T10:04:30.383Z,84.60
2022-10-04T10:05:30.581Z,84.26
2022-10-04T10:06:30.712Z,81.92
2022-10-04T10:08:10.244Z,80.71
2022-10-04T10:08:29.943Z,80.40
2022-10-04T10:09:30.073Z,81.11
2022-10-04T10:10:56.344Z,81.07
2022-10-04T10:11:30.351Z,81.99
2022-10-04T10:12:31.504Z,81.18
2022-10-04T10:13:32.162Z,80.57
2022-10-04T10:14:31.786Z,80.43
2022-10-04T10:15:30.881Z,79.82
2022-10-04T10:16:31.143Z,79.92
2022-10-04T10:17:31.203Z,80.22
2022-10-04T10:18:30.222Z,79.61
2022-10-04T10:19:30.361Z,79.51
2022-10-04T10:20:30.528Z,80.63
2022-10-04T10:21:30.648Z,79.72
2022-10-04T10:22:36.478Z,78.80
2022-10-04T10:23:29.834Z,78.30
2022-10-04T10:24:33.096Z,78.33
2022-10-04T10:25:30.082Z,77.42
2022-10-04T10:26:30.204Z,77.38
2022-10-04T10:27:30.351Z,77.89
2022-10-04T10:28:31.596Z,76.67
2022-10-04T10:29:31.638Z,76.27
2022-10-04T10:30:29.689Z,77.38
2022-10-04T10:31:32.029Z,77.95
2022-10-04T10:32:30.995Z,78.36
2022-10-04T10:33:30.065Z,76.54
2022-10-04T10:35:09.600Z,77.04
2022-10-04T10:35:30.295Z,77.14
2022-10-04T10:36:30.369Z,77.34
2022-10-04T10:37:31.536Z,77.25
2022-10-04T10:38:31.616Z,76.54
2022-10-04T10:39:31.744Z,76.84
2022-10-04T10:40:29.823Z,76.94
2022-10-04T10:41:30.994Z,77.14
2022-10-04T10:42:30.087Z,78.16
2022-10-04T10:43:31.293Z,78.06
2022-10-04T10:44:30.366Z,77.14
2022-10-04T10:45:30.506Z,76.64
2022-10-04T10:46:30.657Z,77.55
2022-10-04T10:47:30.760Z,76.90
2022-10-04T10:48:30.881Z,76.40
2022-10-04T10:49:32.046Z,77.31
2022-10-04T10:50:31.153Z,76.80
2022-10-04T10:51:30.244Z,75.79
2022-10-04T10:52:30.376Z,75.08
2022-10-04T10:53:30.584Z,75.28
2022-10-04T10:54:29.592Z,75.99
2022-10-04T10:55:29.723Z,76.09
2022-10-04T10:56:30.885Z,75.69
2022-10-04T10:57:29.923Z,74.77
2022-10-04T10:58:30.072Z,74.77
2022-10-04T10:59:29.186Z,75.99
2022-10-04T11:00:30.347Z,76.06
2022-10-04T11:01:29.587Z,76.26
2022-10-04T11:02:48.273Z,77.07
2022-10-04T11:03:32.315Z,76.26
2022-10-04T11:04:29.841Z,76.97
2022-10-04T11:05:29.958Z,76.46
2022-10-04T11:06:31.146Z,76.16
2022-10-04T11:07:29.184Z,75.99
2022-10-04T11:08:29.378Z,76.50
2022-10-04T11:09:30.508Z,76.29
2022-10-04T11:10:29.614Z,75.59
2022-10-04T11:11:30.775Z,76.70
2022-10-04T11:12:30.915Z,76.36
2022-10-04T11:13:28.995Z,76.46
2022-10-04T11:15:22.175Z,76.53
2022-10-04T11:15:29.238Z,76.50
2022-10-04T11:16:29.419Z,76.46
2022-10-04T11:17:29.502Z,74.23
2022-10-04T11:18:29.636Z,74.90
2022-10-04T11:19:29.720Z,74.90
2022-10-04T11:20:29.889Z,74.87
2022-10-04T11:21:29.990Z,72.34
2022-10-04T11:22:29.118Z,73.25
2022-10-04T11:23:29.222Z,72.51
2022-10-04T11:24:29.360Z,72.41
2022-10-04T11:25:29.459Z,70.02
2022-10-04T11:26:29.651Z,72.04
2022-10-04T11:27:29.692Z,71.64
2022-10-04T11:28:30.933Z,72.34
2022-10-04T11:29:31.005Z,70.53
2022-10-04T11:30:31.122Z,72.81
2022-10-04T11:31:29.229Z,71.10
2022-10-04T11:32:29.377Z,71.30
2022-10-04T11:33:29.474Z,69.78
2022-10-04T11:34:30.682Z,70.79
2022-10-04T11:35:28.689Z,70.76
2022-10-04T11:36:29.874Z,70.36
2022-10-04T11:37:28.949Z,70.56
2022-10-04T11:38:31.261Z,68.95
2022-10-04T11:39:29.228Z,71.26
2022-10-04T11:40:30.370Z,70.53
2022-10-04T11:41:30.509Z,71.84
2022-10-04T11:42:28.539Z,71.10
2022-10-04T11:43:30.766Z,70.19
2022-10-04T11:44:29.920Z,69.08
2022-10-04T11:45:30.985Z,67.77
2022-10-04T11:46:29.042Z,69.08
2022-10-04T11:47:29.148Z,69.89
2022-10-04T11:48:29.247Z,69.45
2022-10-04T11:49:29.365Z,67.13
2022-10-04T11:50:29.624Z,67.54
2022-10-04T11:51:31.621Z,68.95
2022-10-04T11:52:30.860Z,67.94
2022-10-04T11:53:28.831Z,67.40
2022-10-04T11:54:36.225Z,68.51
2022-10-04T11:55:29.145Z,68.41
2022-10-04T11:56:29.230Z,68.01
2022-10-04T11:57:29.323Z,67.91
2022-10-04T11:58:30.477Z,69.29
2022-10-04T11:59:29.572Z,68.28
2022-10-04T12:00:30.746Z,67.97
2022-10-04T12:01:28.806Z,68.24
2022-10-04T12:02:28.970Z,68.15
2022-10-04T12:03:29.125Z,68.44
2022-10-04T12:04:29.339Z,68.35
2022-10-04T12:05:29.333Z,67.34
2022-10-04T12:06:28.422Z,66.60
2022-10-04T12:07:28.551Z,66.80
2022-10-04T12:08:30.832Z,65.90
2022-10-04T12:09:31.922Z,64.49
2022-10-04T12:10:28.928Z,65.59
2022-10-04T12:11:29.066Z,66.10
2022-10-04T12:12:28.129Z,66.47
2022-10-04T12:13:30.362Z,66.77
2022-10-04T12:14:28.418Z,66.97
2022-10-04T12:15:30.532Z,65.36
2022-10-04T12:16:29.730Z,65.26
2022-10-04T12:17:35.959Z,65.56
2022-10-04T12:18:28.858Z,66.27
2022-10-04T12:19:30.436Z,66.27
2022-10-04T12:20:29.038Z,66.67
2022-10-04T12:21:28.117Z,65.73
2022-10-04T12:22:29.265Z,65.44
2022-10-04T12:23:28.335Z,64.53
2022-10-04T12:24:28.464Z,64.83
2022-10-04T12:25:30.738Z,65.53
2022-10-04T12:26:29.786Z,65.44
2022-10-04T12:27:28.854Z,66.84
2022-10-04T12:28:28.013Z,65.80
2022-10-04T12:29:28.096Z,64.40
2022-10-04T12:30:28.223Z,64.20
2022-10-04T12:31:28.443Z,65.41
2022-10-04T12:32:28.536Z,64.10
2022-10-04T12:33:28.666Z,64.00
2022-10-04T12:34:28.841Z,65.30
2022-10-04T12:35:28.940Z,65.47
2022-10-04T12:36:27.967Z,65.27
2022-10-04T12:37:28.168Z,63.17
2022-10-04T12:38:29.252Z,63.46
2022-10-04T12:39:28.341Z,63.96
2022-10-04T12:40:28.483Z,64.77
2022-10-04T12:41:28.611Z,63.76
2022-10-04T12:42:32.675Z,64.57
2022-10-04T12:43:27.823Z,64.54
2022-10-04T12:44:28.076Z,63.93
2022-10-04T12:45:28.104Z,63.64
2022-10-04T12:46:28.241Z,63.93
2022-10-04T12:47:28.380Z,63.13
2022-10-04T12:48:28.587Z,63.84
2022-10-04T12:49:28.597Z,63.73
2022-10-04T12:50:36.920Z,65.31
2022-10-04T12:51:28.862Z,63.31
2022-10-04T12:52:27.955Z,64.11